Time;durP1;ratioP1;P1;durP2;ratioP2;P2;SDS_P1;SDS_P2;PMS_P1;PMS_P2;Temp;Humidity;BMP_temperature;BMP_pressure;BME280_temperature;BME280_humidity;BME280_pressure;Samples;Min_cycle;Max_cycle;Signal;HPM_P1;HPM_P2
2024/04/22 00:00:20;;;;;;;6.40;4.90;;;;;;;9.47;46.07;102330.38;5279468;27;20266;-82
2024/04/22 00:02:45;;;;;;;7.50;5.00;;;;;;;9.62;46.06;102328.38;5279900;27;20582;-84
2024/04/22 00:05:12;;;;;;;5.30;4.63;;;;;;;9.55;46.39;102326.34;5279372;27;20878;-82
2024/04/22 00:07:37;;;;;;;6.10;4.30;;;;;;;9.52;46.83;102334.03;5279832;27;20267;-83
2024/04/22 00:10:03;;;;;;;5.37;4.70;;;;;;;9.55;46.30;102329.84;5279267;27;20450;-83
2024/04/22 00:12:28;;;;;;;4.57;3.70;;;;;;;9.58;46.51;102324.75;5279922;27;20266;-83
2024/04/22 00:14:53;;;;;;;6.53;4.60;;;;;;;9.54;46.73;102316.75;5279455;27;20266;-84
2024/04/22 00:17:18;;;;;;;6.20;4.03;;;;;;;9.60;46.11;102319.63;5279205;27;20319;-83
2024/04/22 00:19:44;;;;;;;5.57;4.13;;;;;;;9.44;46.33;102320.72;5279083;27;20218;-83
2024/04/22 00:22:09;;;;;;;5.60;3.90;;;;;;;9.59;46.28;102321.34;5279127;27;20318;-84
2024/04/22 00:24:34;;;;;;;5.60;4.20;;;;;;;9.28;46.69;102319.22;5279872;27;20329;-83
2024/04/22 00:27:00;;;;;;;4.97;4.10;;;;;;;9.43;46.79;102318.94;5279410;27;20570;-82
2024/04/22 00:29:25;;;;;;;7.47;4.27;;;;;;;9.44;46.62;102324.22;5279860;27;20261;-84
2024/04/22 00:31:50;;;;;;;5.13;3.70;;;;;;;9.36;46.74;102323.03;5279311;27;20286;-83
2024/04/22 00:34:15;;;;;;;6.90;4.10;;;;;;;9.27;47.12;102318.34;5278838;27;20253;-84
2024/04/22 00:36:41;;;;;;;4.70;4.20;;;;;;;9.43;46.78;102324.13;5278550;27;20266;-83
2024/04/22 00:39:06;;;;;;;6.90;4.10;;;;;;;9.49;46.38;102319.19;5278995;27;20334;-84
2024/04/22 00:41:33;;;;;;;6.70;4.20;;;;;;;9.46;47.29;102312.97;5279404;27;20281;-83
2024/04/22 00:43:58;;;;;;;6.90;4.23;;;;;;;9.29;47.34;102310.59;5249502;27;20215;-84
2024/04/22 00:46:23;;;;;;;5.00;4.50;;;;;;;9.28;47.61;102308.78;5279243;27;20552;-84
2024/04/22 00:48:49;;;;;;;6.10;5.10;;;;;;;9.46;47.65;102312.97;5278970;27;20600;-84
2024/04/22 00:51:15;;;;;;;5.80;4.10;;;;;;;9.46;47.32;102312.97;5279335;27;20265;-83
2024/04/22 00:53:41;;;;;;;6.83;4.67;;;;;;;9.49;47.48;102307.91;5278702;27;20797;-84
2024/04/22 00:56:07;;;;;;;5.37;4.60;;;;;;;9.73;46.89;102308.84;5279676;27;20872;-84
2024/04/22 00:58:32;;;;;;;6.17;4.80;;;;;;;9.55;47.19;102314.25;5249309;27;20266;-84
2024/04/22 01:00:59;;;;;;;6.60;4.13;;;;;;;9.52;47.88;102314.09;5280298;27;21068;-82
2024/04/22 01:03:24;;;;;;;4.90;4.40;;;;;;;9.36;48.87;102316.94;5267750;27;20246;-82
2024/04/22 01:05:50;;;;;;;7.53;4.73;;;;;;;9.32;48.81;102310.69;5286468;27;20450;-84
2024/04/22 01:08:15;;;;;;;6.80;4.73;;;;;;;9.15;49.26;102311.75;5256365;27;20223;-82
2024/04/22 01:10:41;;;;;;;6.47;5.10;;;;;;;9.36;48.91;102309.13;5258934;27;20273;-82
2024/04/22 01:13:06;;;;;;;6.70;5.50;;;;;;;9.31;49.46;102308.03;5289544;27;20215;-83
2024/04/22 01:15:32;;;;;;;5.87;4.90;;;;;;;9.30;49.15;102307.16;5261190;27;20261;-83
2024/04/22 01:17:58;;;;;;;5.00;4.50;;;;;;;9.10;49.47;102303.75;5290127;27;20262;-82
2024/04/22 01:20:23;;;;;;;5.63;4.80;;;;;;;9.29;49.13;102305.38;5258953;27;20474;-82
2024/04/22 01:22:48;;;;;;;5.13;4.63;;;;;;;9.39;48.55;102307.53;5288073;27;20647;-81
2024/04/22 01:25:16;;;;;;;5.60;4.97;;;;;;;9.32;47.85;102305.50;5288298;27;20226;-83
2024/04/22 01:27:42;;;;;;;5.80;4.77;;;;;;;9.30;47.63;102301.09;5289718;27;20239;-83
2024/04/22 01:30:07;;;;;;;5.60;4.67;;;;;;;9.01;48.02;102309.47;5290867;27;20622;-82
2024/04/22 01:32:33;;;;;;;5.33;4.40;;;;;;;8.98;47.73;102306.72;5290653;27;20219;-81
2024/04/22 01:35:00;;;;;;;7.87;5.23;;;;;;;8.92;47.66;102303.88;5289563;27;20340;-84
2024/04/22 01:37:26;;;;;;;5.90;4.53;;;;;;;9.14;46.73;102302.16;5259374;27;20258;-82
2024/04/22 01:39:52;;;;;;;8.13;4.50;;;;;;;9.14;47.49;102304.78;5285821;27;20491;-82
2024/04/22 01:42:17;;;;;;;6.97;4.57;;;;;;;8.75;48.15;102311.88;5280303;27;20870;-83
2024/04/22 01:44:42;;;;;;;5.33;4.53;;;;;;;8.87;47.67;102306.28;5278674;27;20219;-84
2024/04/22 01:47:08;;;;;;;4.97;4.37;;;;;;;8.50;47.84;102303.84;5278276;27;20219;-83
2024/04/22 01:49:33;;;;;;;5.07;4.10;;;;;;;8.80;46.38;102296.44;5281213;27;20278;-83
2024/04/22 01:51:58;;;;;;;4.30;3.90;;;;;;;8.67;45.46;102297.63;5281938;27;20336;-83
2024/04/22 01:54:24;;;;;;;6.20;4.37;;;;;;;8.77;45.17;102292.00;5282492;27;20222;-82
2024/04/22 01:56:49;;;;;;;4.60;4.03;;;;;;;8.47;44.99;102288.09;5252236;27;20227;-83
2024/04/22 01:59:15;;;;;;;5.03;3.90;;;;;;;8.71;44.72;102285.66;5251760;27;20249;-82
2024/04/22 02:01:41;;;;;;;4.93;3.77;;;;;;;8.75;44.66;102283.28;5281381;27;20238;-83
2024/04/22 02:04:07;;;;;;;4.30;3.47;;;;;;;8.79;44.32;102286.00;5251700;27;20982;-84
2024/04/22 02:06:32;;;;;;;5.30;3.83;;;;;;;8.61;44.78;102289.59;5281653;27;20498;-84
2024/04/22 02:08:58;;;;;;;7.40;3.70;;;;;;;8.59;44.81;102293.81;5279547;27;20734;-83
2024/04/22 02:11:23;;;;;;;5.03;3.97;;;;;;;8.91;44.73;102292.56;5293538;21;20264;-75
2024/04/22 02:13:48;;;;;;;5.20;3.77;;;;;;;8.76;44.57;102291.94;5278950;27;20606;-75
2024/04/22 02:16:13;;;;;;;5.70;4.23;;;;;;;8.86;44.61;102295.81;5278608;27;20223;-74
2024/04/22 02:18:39;;;;;;;6.47;4.10;;;;;;;8.73;45.13;102291.81;5276502;27;20227;-74
2024/04/22 02:21:04;;;;;;;6.53;4.20;;;;;;;8.57;45.38;102293.75;5278647;27;20619;-74
2024/04/22 02:23:30;;;;;;;5.30;3.40;;;;;;;8.39;45.09;102288.63;5278504;27;20254;-73
2024/04/22 02:25:55;;;;;;;6.43;4.43;;;;;;;8.40;45.00;102290.41;5278550;27;20219;-74
2024/04/22 02:28:20;;;;;;;4.97;3.70;;;;;;;8.05;45.64;102294.94;5304753;27;20242;-74
2024/04/22 02:30:45;;;;;;;4.30;3.60;;;;;;;8.55;44.11;102290.22;5278232;27;20231;-74
2024/04/22 02:33:11;;;;;;;6.13;4.33;;;;;;;8.42;45.20;102286.16;5278082;27;20227;-73
2024/04/22 02:35:36;;;;;;;6.70;4.40;;;;;;;8.38;45.63;102291.16;5278165;27;20269;-74
2024/04/22 02:38:02;;;;;;;4.10;3.67;;;;;;;8.64;45.16;102281.91;5277944;27;20227;-74
2024/04/22 02:40:27;;;;;;;13.03;10.03;;;;;;;8.59;45.80;102284.31;5278074;27;20283;-74
2024/04/22 02:42:53;;;;;;;30.90;18.67;;;;;;;8.62;45.49;102282.66;5278261;27;20736;-75
2024/04/22 02:45:22;;;;;;;22.50;14.77;;;;;;;8.28;45.76;102282.09;5276265;27;20231;-74
2024/04/22 02:47:47;;;;;;;9.60;6.97;;;;;;;8.42;45.53;102275.75;5277778;27;20438;-74
2024/04/22 02:50:13;;;;;;;34.60;23.40;;;;;;;8.46;46.31;102275.91;5305156;27;20515;-74
2024/04/22 02:52:39;;;;;;;6.97;5.17;;;;;;;8.38;45.83;102273.84;5276243;27;20235;-73
2024/04/22 02:55:04;;;;;;;5.50;4.40;;;;;;;8.14;46.21;102273.66;5278823;27;20463;-74
2024/04/22 02:57:30;;;;;;;4.73;4.10;;;;;;;8.48;45.79;102269.09;5278777;27;20231;-74
2024/04/22 02:59:55;;;;;;;6.00;4.03;;;;;;;8.51;45.89;102270.13;5277905;27;20230;-74
2024/04/22 03:02:20;;;;;;;11.63;5.80;;;;;;;8.51;46.23;102267.53;5277795;27;20760;-74
2024/04/22 03:04:50;;;;;;;4.60;3.80;;;;;;;8.20;46.81;102266.16;5276475;27;20258;-75
2024/04/22 03:07:15;;;;;;;6.13;3.70;;;;;;;8.32;46.65;102263.22;5277851;27;20231;-75
2024/04/22 03:09:42;;;;;;;5.83;4.53;;;;;;;8.40;46.46;102267.03;5277657;27;20850;-75
2024/04/22 03:12:09;;;;;;;7.07;4.47;;;;;;;8.18;46.32;102256.50;5277381;27;20369;-75
2024/04/22 03:14:35;;;;;;;5.30;4.17;;;;;;;8.41;45.56;102260.97;5277736;27;21017;-75
2024/04/22 03:17:00;;;;;;;8.80;5.13;;;;;;;8.21;46.38;102259.22;5277654;27;20454;-74
2024/04/22 03:19:25;;;;;;;5.60;4.70;;;;;;;8.23;44.96;102260.22;5277939;27;20227;-74
2024/04/22 03:21:51;;;;;;;4.60;4.10;;;;;;;8.31;45.80;102261.44;5275929;27;20784;-74
2024/04/22 03:24:16;;;;;;;4.97;4.13;;;;;;;8.35;45.28;102259.81;5277871;27;20265;-74
2024/04/22 03:26:41;;;;;;;4.63;3.93;;;;;;;8.15;45.48;102258.97;5277623;27;20227;-74
2024/04/22 03:29:07;;;;;;;5.77;4.17;;;;;;;8.20;44.75;102253.16;5277414;27;20224;-74
2024/04/22 03:31:32;;;;;;;4.70;4.20;;;;;;;8.26;44.62;102252.53;5277545;27;20231;-74
2024/04/22 03:33:59;;;;;;;4.50;4.10;;;;;;;8.16;45.27;102247.75;5278309;27;20235;-75
2024/04/22 03:36:24;;;;;;;6.90;4.23;;;;;;;8.19;44.62;102250.50;5277850;27;20261;-74
2024/04/22 03:38:49;;;;;;;8.20;6.87;;;;;;;8.06;45.46;102249.06;5278587;27;20447;-73
2024/04/22 03:41:15;;;;;;;10.60;8.23;;;;;;;8.29;45.62;102246.59;5278523;27;20261;-74
2024/04/22 03:43:40;;;;;;;5.80;5.17;;;;;;;8.45;45.86;102245.53;5278658;27;20265;-73
2024/04/22 03:51:34;;;;;;;10.40;3.90;;;;;;;8.34;44.85;102245.09;5277411;27;20595;-72
2024/04/22 03:53:59;;;;;;;5.33;4.30;;;;;;;8.42;44.88;102241.97;5276076;27;20457;-75
2024/04/22 03:56:24;;;;;;;5.47;3.90;;;;;;;8.20;45.56;102249.66;5277219;27;20223;-74
2024/04/22 03:58:49;;;;;;;5.00;4.17;;;;;;;8.10;46.03;102243.19;5277043;27;20253;-74
2024/04/22 04:01:16;;;;;;;4.70;3.70;;;;;;;8.15;46.10;102248.59;5269921;27;20283;-74
2024/04/22 04:03:41;;;;;;;5.47;4.50;;;;;;;8.38;45.29;102252.19;5243771;27;20271;-74
2024/04/22 04:06:06;;;;;;;5.30;4.13;;;;;;;8.19;45.35;102248.78;5243598;27;20978;-74
2024/04/22 04:08:32;;;;;;;8.77;4.50;;;;;;;8.25;44.57;102242.97;5269474;27;20232;-74
2024/04/22 04:11:00;;;;;;;4.87;4.10;;;;;;;7.86;45.72;102250.75;5242059;27;20236;-75
2024/04/22 04:13:26;;;;;;;6.93;3.90;;;;;;;8.10;44.71;102256.16;5243065;27;20240;-74
2024/04/22 04:15:51;;;;;;;8.43;5.90;;;;;;;8.39;44.11;102254.84;5241687;27;20978;-74
2024/04/22 04:18:17;;;;;;;5.30;4.47;;;;;;;8.33;44.00;102244.19;5242831;27;20224;-74
2024/04/22 04:20:42;;;;;;;7.13;3.50;;;;;;;8.07;44.09;102249.13;5242961;27;20719;-75
2024/04/22 04:23:07;;;;;;;5.73;4.03;;;;;;;8.21;43.71;102251.44;5243407;27;20612;-74
2024/04/22 04:25:33;;;;;;;5.13;4.10;;;;;;;7.93;43.32;102242.44;5243179;27;20300;-75
2024/04/22 04:27:58;;;;;;;5.70;4.13;;;;;;;8.30;42.52;102249.25;5242401;27;20216;-75
2024/04/22 04:30:23;;;;;;;5.80;5.20;;;;;;;8.24;42.50;102249.88;5243504;27;20901;-75
2024/04/22 04:32:48;;;;;;;6.00;4.90;;;;;;;8.05;42.77;102248.19;5241303;27;20232;-74
2024/04/22 04:35:14;;;;;;;7.90;6.17;;;;;;;8.16;42.97;102248.66;5243167;27;20702;-75
2024/04/22 04:37:39;;;;;;;6.50;3.80;;;;;;;8.29;43.54;102246.59;5243555;27;20224;-74
2024/04/22 04:40:05;;;;;;;5.77;4.43;;;;;;;8.27;43.47;102243.94;5269265;27;20435;-74
2024/04/22 04:42:30;;;;;;;5.10;4.17;;;;;;;8.23;43.51;102248.09;5240628;27;20711;-75
2024/04/22 04:44:56;;;;;;;25.80;15.53;;;;;;;8.05;44.28;102248.19;5243176;27;20448;-74
2024/04/22 04:47:21;;;;;;;13.03;8.03;;;;;;;8.57;43.44;102248.69;5242864;27;20224;-75
2024/04/22 04:49:46;;;;;;;5.80;4.40;;;;;;;8.45;44.56;102258.53;5269832;27;20247;-75
2024/04/22 04:52:12;;;;;;;6.23;4.57;;;;;;;8.72;44.22;102259.72;5243519;27;20759;-75
2024/04/22 04:54:37;;;;;;;6.13;4.70;;;;;;;8.70;44.18;102263.97;5242794;27;20235;-75
2024/04/22 04:57:02;;;;;;;6.90;4.33;;;;;;;8.69;43.36;102256.13;5242442;27;20266;-74
2024/04/22 04:59:28;;;;;;;7.33;4.80;;;;;;;8.50;43.68;102263.13;5242532;27;20255;-75
2024/04/22 05:01:53;;;;;;;7.17;4.63;;;;;;;8.46;44.38;102258.63;5257987;27;20717;-74
2024/04/22 05:04:18;;;;;;;5.30;4.50;;;;;;;8.52;43.75;102256.28;5276936;27;20325;-74
2024/04/22 05:06:45;;;;;;;5.03;4.30;;;;;;;8.87;44.04;102251.66;5277061;27;20338;-75
2024/04/22 05:09:10;;;;;;;5.37;4.10;;;;;;;8.69;44.10;102259.59;5276468;27;20255;-75
2024/04/22 05:11:35;;;;;;;8.83;4.77;;;;;;;8.57;44.57;102252.16;5276176;27;20512;-75
2024/04/22 05:14:00;;;;;;;5.10;4.60;;;;;;;8.51;45.32;102248.41;5278132;27;20262;-74
2024/04/22 05:16:26;;;;;;;7.30;5.30;;;;;;;7.89;46.13;102246.59;5277958;27;20265;-74
2024/04/22 05:18:51;;;;;;;6.03;4.83;;;;;;;8.44;44.81;102236.84;5276583;27;20231;-75
2024/04/22 05:21:16;;;;;;;9.63;5.63;;;;;;;8.26;45.40;102247.34;5278465;27;20771;-75
2024/04/22 05:23:46;;;;;;;5.87;5.17;;;;;;;8.38;44.27;102234.00;5280444;27;20257;-75
2024/04/22 05:26:11;;;;;;;7.63;6.27;;;;;;;7.76;46.10;102239.94;5279865;27;20577;-75
2024/04/22 05:28:36;;;;;;;5.43;4.90;;;;;;;7.54;45.06;102243.28;5277868;27;20458;-75
2024/04/22 05:31:02;;;;;;;5.70;4.50;;;;;;;7.99;43.89;102232.31;5280048;27;20682;-75
2024/04/22 05:36:14;;;;;;;4.63;4.00;;;;;;;7.96;42.18;102227.00;5279363;27;20712;-74
2024/04/22 05:38:41;;;;;;;5.00;3.60;;;;;;;7.92;41.14;102230.28;5279732;27;20490;-75
2024/04/22 05:41:06;;;;;;;6.00;4.00;;;;;;;8.73;40.18;102214.69;5277617;27;20570;-74
2024/04/22 05:43:32;;;;;;;4.40;4.00;;;;;;;7.88;41.42;102215.38;5280617;27;21017;-73
2024/04/22 05:45:57;;;;;;;9.33;4.23;;;;;;;7.62;42.40;102212.50;5281178;27;20646;-76
2024/04/22 05:48:22;;;;;;;5.53;3.40;;;;;;;8.13;39.90;102219.94;5280803;27;20752;-74
2024/04/22 05:50:47;;;;;;;4.27;3.20;;;;;;;7.50;40.47;102222.31;5279500;27;20235;-75
2024/04/22 05:53:13;;;;;;;4.13;3.50;;;;;;;7.25;41.42;102219.47;5278194;27;20235;-75
2024/04/22 05:55:39;;;;;;;5.73;3.33;;;;;;;7.36;41.23;102217.38;5279784;27;20223;-75
2024/04/22 05:58:04;;;;;;;5.50;3.77;;;;;;;7.85;40.15;102204.88;5278121;27;20285;-75
2024/04/22 06:00:29;;;;;;;5.53;3.30;;;;;;;7.25;40.90;102213.38;5278898;27;20231;-74
2024/04/22 06:02:54;;;;;;;3.97;3.30;;;;;;;8.54;38.88;102201.78;5279489;27;20285;-76
2024/04/22 06:05:20;;;;;;;11.47;3.67;;;;;;;8.46;37.93;102204.06;5279054;27;20269;-74
2024/04/22 06:07:45;;;;;;;4.63;3.23;;;;;;;7.89;38.95;102209.38;5278971;27;20262;-75
2024/04/22 06:10:10;;;;;;;4.37;3.77;;;;;;;8.13;37.93;102212.13;5305315;27;20254;-75
2024/04/22 06:12:36;;;;;;;12.00;4.50;;;;;;;7.91;38.61;102210.31;5278951;27;20278;-74
2024/04/22 06:15:01;;;;;;;4.70;3.60;;;;;;;8.60;37.29;102207.22;5278904;27;20536;-75
2024/04/22 06:17:26;;;;;;;14.33;3.70;;;;;;;8.49;36.34;102203.28;5277143;27;20630;-74
2024/04/22 06:19:51;;;;;;;9.13;3.70;;;;;;;8.76;36.64;102204.41;5278637;27;20222;-75
2024/04/22 06:22:17;;;;;;;6.80;3.57;;;;;;;8.46;37.55;102210.94;5279032;27;20235;-75
2024/04/22 06:24:42;;;;;;;4.70;3.73;;;;;;;8.75;36.75;102201.75;5278522;27;20270;-75
2024/04/22 06:27:07;;;;;;;4.50;3.70;;;;;;;8.97;37.40;102198.31;5278985;27;20316;-75
2024/04/22 06:29:33;;;;;;;5.23;4.17;;;;;;;9.17;37.87;102200.81;5276899;27;20227;-73
2024/04/22 06:31:58;;;;;;;3.80;3.33;;;;;;;8.63;38.23;102204.72;5304873;27;20269;-73
2024/04/22 06:34:23;;;;;;;4.50;3.73;;;;;;;7.80;38.91;102211.56;5277986;27;20419;-75
2024/04/22 06:36:49;;;;;;;5.47;3.50;;;;;;;8.64;38.63;102206.53;5279154;27;20644;-76
2024/04/22 06:39:14;;;;;;;3.80;3.17;;;;;;;8.66;38.76;102210.09;5276221;27;20227;-75
2024/04/22 06:41:39;;;;;;;4.00;3.33;;;;;;;8.53;39.52;102211.28;5278755;27;20281;-75
2024/04/22 06:44:05;;;;;;;4.90;4.40;;;;;;;8.18;40.60;102217.53;5278336;27;20701;-74
2024/04/22 06:46:32;;;;;;;5.47;4.30;;;;;;;8.48;39.67;102211.91;5277214;27;20231;-74
2024/04/22 06:48:57;;;;;;;4.30;3.90;;;;;;;8.42;40.05;102207.31;5278134;27;20569;-76
2024/04/22 06:51:23;;;;;;;6.93;5.40;;;;;;;8.54;39.82;102218.25;5279139;27;20462;-73
2024/04/22 06:53:49;;;;;;;5.97;4.27;;;;;;;8.58;40.32;102212.34;5279132;27;20715;-74
2024/04/22 06:56:14;;;;;;;6.13;3.70;;;;;;;7.91;41.14;102211.22;5278350;27;20502;-75
2024/04/22 06:58:39;;;;;;;5.23;3.40;;;;;;;8.87;40.50;102206.56;5278175;27;20253;-76
2024/04/22 07:01:04;;;;;;;7.43;4.10;;;;;;;8.56;41.34;102197.53;5278056;27;20648;-73
2024/04/22 07:03:30;;;;;;;5.90;3.93;;;;;;;8.93;41.17;102199.91;5277734;27;20234;-74
2024/04/22 07:05:55;;;;;;;4.30;3.37;;;;;;;8.57;41.15;102207.09;5277920;27;20334;-75
2024/04/22 07:08:21;;;;;;;4.07;3.50;;;;;;;9.18;40.18;102192.19;5277957;27;20270;-75
2024/04/22 07:10:46;;;;;;;4.23;3.50;;;;;;;9.13;40.26;102198.91;5277584;27;20247;-75
2024/04/22 07:13:12;;;;;;;5.47;4.23;;;;;;;9.05;40.70;102196.91;5275941;27;21065;-75
2024/04/22 07:15:37;;;;;;;4.20;3.80;;;;;;;9.23;39.50;102191.53;5277576;27;20235;-75
2024/04/22 07:18:03;;;;;;;5.17;3.77;;;;;;;9.11;40.16;102191.06;5275917;27;20230;-75
2024/04/22 07:20:28;;;;;;;5.93;3.27;;;;;;;9.78;39.16;102189.19;5276341;27;20325;-76
2024/04/22 07:22:54;;;;;;;4.77;3.90;;;;;;;10.28;38.45;102192.72;5278108;27;20266;-74
2024/04/22 07:25:20;;;;;;;4.70;3.43;;;;;;;9.97;38.76;102184.66;5277259;27;20818;-74
2024/04/22 07:27:46;;;;;;;7.83;5.70;;;;;;;9.56;39.00;102182.34;5276215;27;20325;-74
2024/04/22 07:30:12;;;;;;;4.10;3.47;;;;;;;9.64;36.64;102191.31;5277275;27;20443;-74
2024/04/22 07:32:37;;;;;;;4.50;3.37;;;;;;;9.55;38.68;102189.28;5277889;27;20355;-74
2024/04/22 07:35:03;;;;;;;5.20;3.57;;;;;;;9.23;37.69;102190.66;5277755;27;20219;-75
2024/04/22 07:37:33;;;;;;;5.00;3.87;;;;;;;8.30;36.78;102193.81;5276963;27;20269;-75
2024/04/22 07:40:06;;;;;;;9.20;6.40;;;;;;;9.92;36.64;102195.81;5276760;27;20658;-75
2024/04/22 07:42:31;;;;;;;6.10;3.90;;;;;;;9.51;37.41;102191.69;5277151;27;20590;-75
2024/04/22 07:44:56;;;;;;;4.20;3.60;;;;;;;9.15;37.10;102197.28;5277023;27;20458;-74
2024/04/22 07:47:21;;;;;;;4.67;4.10;;;;;;;9.19;36.70;102201.78;5276856;27;20265;-73
2024/04/22 07:49:47;;;;;;;4.00;3.33;;;;;;;9.05;36.90;102201.22;5277272;27;20336;-76
2024/04/22 07:52:12;;;;;;;5.10;3.63;;;;;;;9.07;38.25;102203.03;5277185;27;20277;-74
2024/04/22 07:54:38;;;;;;;3.97;3.20;;;;;;;9.33;39.38;102203.16;5277081;27;20294;-75
2024/04/22 07:57:03;;;;;;;5.27;3.60;;;;;;;8.75;37.68;102207.88;5276824;27;20227;-77
2024/04/22 07:59:29;;;;;;;6.10;3.43;;;;;;;9.57;37.29;102210.16;5277753;27;20227;-75
2024/04/22 08:01:55;;;;;;;3.40;3.10;;;;;;;9.23;36.35;102207.13;5277654;27;20250;-75
2024/04/22 08:04:21;;;;;;;3.73;3.37;;;;;;;8.88;36.20;102210.97;5277105;27;20846;-74
2024/04/22 08:06:47;;;;;;;6.50;3.57;;;;;;;9.09;36.88;102204.00;5277281;27;20227;-75
2024/04/22 08:09:12;;;;;;;5.13;3.33;;;;;;;8.71;36.34;102203.38;5277277;27;20279;-74
2024/04/22 08:11:37;;;;;;;20.30;12.83;;;;;;;9.44;36.22;102201.88;5299893;21;20677;-75
2024/04/22 08:14:03;;;;;;;4.20;3.70;;;;;;;10.19;34.95;102192.41;5277657;27;20218;-77
2024/04/22 08:16:28;;;;;;;5.07;3.33;;;;;;;9.71;35.73;102195.03;5277969;27;20238;-76
2024/04/22 08:18:53;;;;;;;4.13;3.17;;;;;;;9.63;36.71;102205.16;5277866;27;20243;-75
2024/04/22 08:21:19;;;;;;;3.70;3.40;;;;;;;9.53;36.44;102193.50;5277105;27;20238;-76
2024/04/22 08:23:44;;;;;;;4.60;3.10;;;;;;;10.85;35.42;102190.22;5277809;27;20355;-76
2024/04/22 08:26:09;;;;;;;7.07;3.80;;;;;;;10.25;36.85;102186.50;5277587;27;20215;-76
2024/04/22 08:28:34;;;;;;;4.73;3.37;;;;;;;10.93;35.89;102186.16;5277678;27;20329;-76
2024/04/22 08:31:01;;;;;;;5.03;3.80;;;;;;;11.19;35.40;102192.19;5277596;27;20839;-76
2024/04/22 08:33:26;;;;;;;4.60;3.97;;;;;;;10.92;37.58;102185.28;5277991;27;20219;-77
2024/04/22 08:35:52;;;;;;;4.97;3.50;;;;;;;11.36;36.59;102179.63;5278631;27;21032;-74
2024/04/22 08:38:17;;;;;;;3.53;3.23;;;;;;;11.25;34.72;102189.75;5277656;27;20223;-76
2024/04/22 08:40:43;;;;;;;7.90;4.47;;;;;;;10.80;36.29;102184.88;5276964;27;20353;-76
2024/04/22 08:43:09;;;;;;;6.23;5.07;;;;;;;10.60;34.62;102190.31;5277216;27;20274;-75
2024/04/22 08:45:34;;;;;;;3.90;3.50;;;;;;;10.25;34.99;102191.72;5276744;27;20633;-77
2024/04/22 08:48:02;;;;;;;8.00;6.00;;;;;;;10.54;35.58;102184.94;5277469;27;20215;-76
2024/04/22 08:50:28;;;;;;;6.70;3.60;;;;;;;11.21;33.90;102181.78;5247179;27;20234;-77
2024/04/22 08:52:55;;;;;;;10.93;7.47;;;;;;;11.37;32.93;102170.97;5276738;27;20571;-76
2024/04/22 08:55:21;;;;;;;4.83;3.37;;;;;;;10.66;33.92;102178.31;5277547;27;20770;-75
2024/04/22 08:57:46;;;;;;;5.47;3.20;;;;;;;11.35;34.49;102171.75;5281258;27;20545;-76
2024/04/22 09:00:12;;;;;;;6.53;4.50;;;;;;;11.91;34.46;102167.25;5283861;27;20490;-76
2024/04/22 09:02:38;;;;;;;4.00;3.57;;;;;;;11.43;33.65;102163.31;5283435;27;20351;-75
2024/04/22 09:05:04;;;;;;;4.57;3.80;;;;;;;11.69;35.29;102157.94;5283673;27;20606;-75
2024/04/22 09:07:29;;;;;;;4.13;3.60;;;;;;;11.82;34.68;102163.50;5283876;27;20502;-76
2024/04/22 09:09:54;;;;;;;4.47;3.77;;;;;;;11.70;35.15;102162.31;5284103;27;20222;-76
2024/04/22 09:12:20;;;;;;;4.20;3.80;;;;;;;11.46;34.67;102160.78;5283954;27;20302;-76
2024/04/22 09:14:45;;;;;;;10.33;5.83;;;;;;;11.87;34.49;102148.84;5285340;27;20244;-75
2024/04/22 09:17:16;;;;;;;6.17;4.17;;;;;;;11.72;34.51;102152.78;5283579;27;20223;-75
2024/04/22 09:19:46;;;;;;;3.90;3.30;;;;;;;11.50;34.72;102148.72;5283399;27;20332;-75
2024/04/22 09:22:13;;;;;;;4.90;3.70;;;;;;;11.27;35.06;102151.53;5284413;27;20574;-77
2024/04/22 09:24:38;;;;;;;5.07;3.60;;;;;;;12.00;35.03;102150.97;5283974;27;20555;-78
2024/04/22 09:27:04;;;;;;;3.60;3.30;;;;;;;11.69;34.37;102146.59;5283894;27;20446;-76
2024/04/22 09:29:38;;;;;;;5.00;3.67;;;;;;;12.14;35.06;102138.25;5283726;27;20223;-75
2024/04/22 09:32:09;;;;;;;5.53;3.80;;;;;;;12.88;34.01;102141.75;5284576;27;20332;-76
2024/04/22 09:34:39;;;;;;;5.20;4.20;;;;;;;12.75;33.67;102135.38;5284288;27;20426;-76
2024/04/22 09:37:06;;;;;;;5.37;3.80;;;;;;;12.89;35.30;102140.91;5283743;27;20482;-76
2024/04/22 09:39:33;;;;;;;5.13;4.10;;;;;;;12.13;33.33;102134.75;5283484;27;20446;-76
2024/04/22 09:41:59;;;;;;;5.87;4.30;;;;;;;12.57;33.56;102143.66;5283429;27;20435;-77
2024/04/22 09:44:26;;;;;;;4.33;3.80;;;;;;;12.71;33.20;102141.38;5283352;27;21019;-76
2024/04/22 09:46:54;;;;;;;5.40;3.87;;;;;;;13.52;33.54;102141.38;5254966;27;20462;-77
2024/04/22 09:49:20;;;;;;;4.90;3.73;;;;;;;12.83;31.41;102135.53;5284269;27;20941;-76
2024/04/22 09:51:46;;;;;;;4.57;3.50;;;;;;;11.88;33.03;102140.13;5283011;27;20514;-75
2024/04/22 09:54:11;;;;;;;4.17;3.60;;;;;;;12.48;32.43;102127.75;5282962;27;20838;-77
2024/04/22 09:56:38;;;;;;;3.90;3.50;;;;;;;12.30;33.16;102134.31;5283336;27;20466;-76
2024/04/22 09:59:05;;;;;;;5.17;3.80;;;;;;;13.11;33.91;102134.41;5282820;27;20273;-76
2024/04/22 10:01:30;;;;;;;4.23;3.70;;;;;;;13.75;31.68;102115.66;5283052;27;20470;-76
2024/04/22 10:03:56;;;;;;;4.80;3.90;;;;;;;14.49;31.65;102115.16;5283225;27;20838;-77
2024/04/22 10:06:24;;;;;;;4.00;3.60;;;;;;;13.77;31.95;102116.53;5283258;27;20615;-76
2024/04/22 10:08:49;;;;;;;7.50;3.80;;;;;;;13.68;33.25;102129.47;5250831;27;20231;-76
2024/04/22 10:11:16;;;;;;;4.20;3.80;;;;;;;13.73;31.40;102130.44;5280378;27;20485;-77
2024/04/22 10:13:42;;;;;;;7.57;5.33;;;;;;;14.00;31.75;102119.56;5280011;27;20281;-76
2024/04/22 10:16:14;;;;;;;4.73;3.97;;;;;;;14.04;32.28;102123.16;5279490;27;20426;-77
2024/04/22 10:18:49;;;;;;;5.30;3.80;;;;;;;14.52;31.78;102121.28;5279289;27;20333;-76
2024/04/22 10:21:14;;;;;;;4.37;3.97;;;;;;;13.90;31.62;102125.53;5273799;27;20438;-75
2024/04/22 10:23:39;;;;;;;4.13;3.73;;;;;;;14.48;31.88;102110.75;5279144;27;20477;-76
2024/04/22 10:26:18;;;;;;;4.30;3.90;;;;;;;14.45;30.26;102108.09;5279292;27;20219;-77
2024/04/22 10:28:45;;;;;;;3.77;3.47;;;;;;;16.05;31.21;102103.09;5278607;27;20227;-75
2024/04/22 10:31:25;;;;;;;25.93;19.63;;;;;;;16.00;32.38;102113.53;5279555;27;20454;-77
2024/04/22 10:33:50;;;;;;;4.70;4.20;;;;;;;16.82;29.78;102097.50;5279310;27;20442;-76
2024/04/22 10:36:15;;;;;;;4.93;4.23;;;;;;;16.32;31.30;102098.91;5278249;27;20960;-77
2024/04/22 10:38:41;;;;;;;4.90;3.57;;;;;;;15.95;29.79;102101.22;5278141;27;20227;-77
2024/04/22 10:41:06;;;;;;;8.53;3.73;;;;;;;14.26;32.01;102098.16;5278475;27;20733;-77
2024/04/22 10:43:33;;;;;;;4.33;3.90;;;;;;;13.57;33.40;102103.06;5279204;27;20235;-76
2024/04/22 10:45:58;;;;;;;4.43;3.70;;;;;;;14.05;32.23;102099.56;5278824;27;20270;-77
2024/04/22 10:48:24;;;;;;;4.60;4.17;;;;;;;13.45;32.59;102096.75;5278184;27;20450;-75
2024/04/22 10:50:49;;;;;;;4.63;4.10;;;;;;;13.78;31.74;102087.72;5278541;27;20220;-78
2024/04/22 10:53:15;;;;;;;5.40;4.07;;;;;;;13.17;34.21;102092.66;5249232;27;20253;-78
2024/04/22 10:55:40;;;;;;;5.20;4.70;;;;;;;13.32;32.78;102092.94;5279253;27;20257;-77
2024/04/22 10:58:05;;;;;;;5.13;3.97;;;;;;;13.74;32.79;102083.28;5278534;27;20219;-78
2024/04/22 11:00:32;;;;;;;5.40;4.90;;;;;;;13.96;31.85;102079.34;5278608;27;20227;-76
2024/04/22 11:02:58;;;;;;;11.70;5.00;;;;;;;14.52;31.30;102079.31;5279550;27;20235;-77
2024/04/22 11:05:24;;;;;;;4.93;4.30;;;;;;;14.37;31.14;102075.63;5278472;27;20489;-75
2024/04/22 11:07:49;;;;;;;5.40;4.63;;;;;;;14.98;30.73;102070.38;5278320;27;20462;-76
2024/04/22 11:10:16;;;;;;;4.50;3.70;;;;;;;14.96;29.03;102063.34;5278271;27;20274;-77
2024/04/22 11:12:42;;;;;;;4.83;4.30;;;;;;;15.36;31.42;102063.81;5278112;27;20329;-77
2024/04/22 11:15:07;;;;;;;5.93;4.30;;;;;;;16.36;28.34;102052.44;5278968;27;20466;-77
2024/04/22 11:17:32;;;;;;;4.03;3.60;;;;;;;15.90;27.45;102051.22;5278810;27;20219;-78
2024/04/22 11:20:11;;;;;;;4.70;3.63;;;;;;;16.36;28.24;102048.06;5277584;27;20223;-77
2024/04/22 11:22:37;;;;;;;4.00;3.70;;;;;;;17.41;27.37;102038.00;5280460;27;20234;-77
2024/04/22 11:25:03;;;;;;;4.00;3.70;;;;;;;17.60;25.96;102040.66;5278855;27;20443;-75
2024/04/22 11:27:31;;;;;;;5.30;3.90;;;;;;;16.71;27.43;102042.13;5282775;27;20223;-77
2024/04/22 11:29:56;;;;;;;3.97;3.57;;;;;;;16.66;29.29;102044.72;5280570;27;20773;-76